Time;durP1;ratioP1;P1;durP2;ratioP2;P2;SDS_P1;SDS_P2;PMS_P1;PMS_P2;Temp;Humidity;BMP_temperature;BMP_pressure;BME280_temperature;BME280_humidity;BME280_pressure;Samples;Min_cycle;Max_cycle;Signal;HPM_P1;HPM_P2
2021/10/25 00:02:09;;;;;;;1.37;1.27;;;;;;;;;;5030320;28;20186;-72
2021/10/25 00:04:35;;;;;;;1.02;0.93;;;;;;;;;;5029286;28;20446;-72
2021/10/25 00:07:01;;;;;;;0.80;0.70;;;;;;;;;;5029773;28;20182;-72
2021/10/25 00:09:27;;;;;;;1.15;1.02;;;;;;;;;;5031013;28;20453;-72
2021/10/25 00:11:53;;;;;;;0.80;0.70;;;;;;;;;;5030455;28;20190;-72
2021/10/25 00:14:19;;;;;;;1.27;1.17;;;;;;;;;;5031316;28;20183;-72
2021/10/25 00:16:45;;;;;;;0.80;0.80;;;;;;;;;;5029399;28;20436;-72
2021/10/25 00:19:11;;;;;;;0.80;0.75;;;;;;;;;;5031322;28;20594;-72
2021/10/25 00:21:38;;;;;;;0.80;0.70;;;;;;;;;;5035542;28;20591;-72
2021/10/25 00:24:04;;;;;;;2.35;1.45;;;;;;;;;;5031171;28;20193;-72
2021/10/25 00:26:30;;;;;;;1.13;0.90;;;;;;;;;;5028866;28;20182;-72
2021/10/25 00:28:57;;;;;;;1.27;1.17;;;;;;;;;;5029390;28;20248;-72
2021/10/25 00:31:23;;;;;;;0.80;0.73;;;;;;;;;;5029742;28;20213;-72
2021/10/25 00:33:49;;;;;;;1.30;1.00;;;;;;;;;;5029829;28;20253;-72
2021/10/25 00:36:15;;;;;;;1.83;1.73;;;;;;;;;;5028966;28;20938;-72
2021/10/25 00:38:41;;;;;;;0.80;0.70;;;;;;;;;;5030923;28;20226;-72
2021/10/25 00:41:07;;;;;;;1.02;0.93;;;;;;;;;;5029566;28;20209;-72
2021/10/25 00:43:33;;;;;;;3.33;1.38;;;;;;;;;;5030615;28;20187;-72
2021/10/25 00:45:59;;;;;;;1.20;1.10;;;;;;;;;;5029478;28;20189;-72
2021/10/25 00:48:25;;;;;;;0.93;0.88;;;;;;;;;;5031019;28;20448;-72
2021/10/25 00:50:51;;;;;;;0.80;0.70;;;;;;;;;;5035260;28;20190;-72
2021/10/25 00:53:17;;;;;;;1.10;1.00;;;;;;;;;;5033019;28;20194;-72
2021/10/25 00:55:43;;;;;;;0.80;0.80;;;;;;;;;;5028871;28;20445;-72
2021/10/25 00:58:09;;;;;;;1.03;0.93;;;;;;;;;;5025866;28;20537;-72
2021/10/25 01:00:36;;;;;;;0.97;0.87;;;;;;;;;;5032762;28;20465;-72
2021/10/25 01:03:02;;;;;;;0.80;0.80;;;;;;;;;;5034302;28;20893;-72
2021/10/25 01:05:29;;;;;;;1.60;0.90;;;;;;;;;;5033484;28;20577;-72
2021/10/25 01:07:55;;;;;;;1.10;1.00;;;;;;;;;;5032241;28;20185;-72
2021/10/25 01:10:21;;;;;;;0.80;0.75;;;;;;;;;;5030933;28;20213;-72
2021/10/25 01:12:49;;;;;;;0.80;0.70;;;;;;;;;;5031658;28;20193;-72
2021/10/25 01:15:15;;;;;;;0.80;0.70;;;;;;;;;;5034171;28;20235;-72
2021/10/25 01:17:41;;;;;;;2.55;1.90;;;;;;;;;;5030007;28;20205;-72
2021/10/25 01:20:07;;;;;;;1.25;1.15;;;;;;;;;;5032199;28;20220;-72
2021/10/25 01:22:34;;;;;;;0.80;0.70;;;;;;;;;;5033913;28;20556;-72
2021/10/25 01:25:01;;;;;;;1.25;1.15;;;;;;;;;;5033759;28;20178;-72
2021/10/25 01:27:27;;;;;;;1.45;1.35;;;;;;;;;;5031650;28;20178;-72
2021/10/25 01:29:53;;;;;;;0.80;0.70;;;;;;;;;;5027752;28;20206;-72
2021/10/25 01:32:19;;;;;;;1.35;1.25;;;;;;;;;;5032473;28;20233;-72
2021/10/25 01:34:45;;;;;;;1.45;0.88;;;;;;;;;;5031900;28;20646;-72
2021/10/25 01:37:11;;;;;;;0.90;0.70;;;;;;;;;;5033054;28;20622;-72
2021/10/25 01:39:37;;;;;;;1.17;1.07;;;;;;;;;;5032942;28;20208;-72
2021/10/25 01:42:03;;;;;;;0.80;0.80;;;;;;;;;;5033399;28;20488;-72
2021/10/25 01:44:29;;;;;;;0.80;0.80;;;;;;;;;;5032934;28;20183;-72
2021/10/25 01:46:55;;;;;;;2.00;1.37;;;;;;;;;;5030433;28;20182;-72
2021/10/25 01:49:21;;;;;;;1.13;1.02;;;;;;;;;;5033573;28;20484;-72
2021/10/25 01:51:47;;;;;;;1.27;1.17;;;;;;;;;;5041258;28;20225;-72
2021/10/25 01:54:13;;;;;;;0.80;0.70;;;;;;;;;;5033007;28;20470;-72
2021/10/25 01:56:39;;;;;;;1.33;1.23;;;;;;;;;;5031082;28;20420;-72
2021/10/25 01:59:09;;;;;;;0.80;0.60;;;;;;;;;;5031656;28;20554;-72
2021/10/25 02:01:35;;;;;;;4.10;1.75;;;;;;;;;;5031077;28;20877;-72
2021/10/25 02:04:05;;;;;;;0.80;0.73;;;;;;;;;;5028686;28;20190;-72
2021/10/25 02:06:31;;;;;;;0.90;0.90;;;;;;;;;;5031867;28;20183;-72
2021/10/25 02:08:57;;;;;;;1.10;1.00;;;;;;;;;;5033351;28;20271;-72
2021/10/25 02:11:23;;;;;;;0.80;0.70;;;;;;;;;;5033434;28;20178;-72
2021/10/25 02:13:49;;;;;;;0.80;0.60;;;;;;;;;;5031921;28;20445;-72
2021/10/25 02:16:16;;;;;;;1.20;1.00;;;;;;;;;;5032113;28;20186;-72
2021/10/25 02:18:42;;;;;;;0.80;0.60;;;;;;;;;;5032918;28;20480;-72
2021/10/25 02:21:08;;;;;;;0.80;0.70;;;;;;;;;;5035640;28;20743;-72
2021/10/25 02:23:34;;;;;;;0.80;0.80;;;;;;;;;;5033188;28;20998;-72
2021/10/25 02:26:01;;;;;;;1.10;1.00;;;;;;;;;;5030973;28;20471;-72
2021/10/25 02:28:27;;;;;;;0.80;0.80;;;;;;;;;;5030760;28;20213;-72
2021/10/25 02:30:53;;;;;;;2.80;2.55;;;;;;;;;;5029340;28;20190;-72
2021/10/25 02:33:20;;;;;;;1.20;0.98;;;;;;;;;;5032033;28;20693;-72
2021/10/25 02:35:46;;;;;;;0.80;0.60;;;;;;;;;;5032549;28;20186;-72
2021/10/25 02:38:12;;;;;;;1.45;1.05;;;;;;;;;;5031691;28;20658;-72
2021/10/25 02:40:38;;;;;;;0.88;0.88;;;;;;;;;;5032626;28;20198;-72
2021/10/25 02:43:05;;;;;;;0.80;0.60;;;;;;;;;;5030611;28;20178;-72
2021/10/25 02:45:31;;;;;;;0.80;0.80;;;;;;;;;;5031277;28;20182;-72
2021/10/25 02:47:57;;;;;;;1.00;0.73;;;;;;;;;;5031420;28;20516;-72
2021/10/25 02:50:23;;;;;;;0.80;0.80;;;;;;;;;;5031583;28;20621;-72
2021/10/25 02:52:49;;;;;;;0.80;0.70;;;;;;;;;;5032476;28;20239;-72
2021/10/25 02:55:15;;;;;;;0.80;0.80;;;;;;;;;;5031027;28;20218;-72
2021/10/25 02:57:42;;;;;;;0.80;0.73;;;;;;;;;;5029161;28;20441;-72
2021/10/25 03:00:09;;;;;;;0.80;0.70;;;;;;;;;;5029832;28;20682;-72
2021/10/25 03:02:35;;;;;;;0.80;0.60;;;;;;;;;;5031914;28;20192;-72
2021/10/25 03:05:02;;;;;;;2.08;1.98;;;;;;;;;;5031957;28;20634;-72
2021/10/25 03:07:27;;;;;;;1.13;1.02;;;;;;;;;;5029927;28;20209;-72
2021/10/25 03:09:53;;;;;;;1.20;1.10;;;;;;;;;;5030693;28;20199;-72
2021/10/25 03:12:19;;;;;;;0.80;0.70;;;;;;;;;;5030803;28;20932;-72
2021/10/25 03:14:45;;;;;;;0.80;0.70;;;;;;;;;;5031709;28;20417;-72
2021/10/25 03:17:11;;;;;;;1.45;1.35;;;;;;;;;;5028785;28;20840;-72
2021/10/25 03:19:38;;;;;;;1.30;0.90;;;;;;;;;;5027561;28;20202;-72
2021/10/25 03:22:07;;;;;;;0.82;0.77;;;;;;;;;;5039867;28;20460;-72
2021/10/25 03:24:34;;;;;;;0.80;0.73;;;;;;;;;;5031280;28;20186;-72
2021/10/25 03:27:00;;;;;;;0.80;0.80;;;;;;;;;;5029777;28;20182;-72
2021/10/25 03:29:26;;;;;;;0.80;0.70;;;;;;;;;;5030022;28;20224;-72
2021/10/25 03:31:52;;;;;;;0.80;0.70;;;;;;;;;;5028364;28;20456;-72
2021/10/25 03:34:18;;;;;;;0.80;0.70;;;;;;;;;;5032666;28;20551;-72
2021/10/25 03:36:47;;;;;;;1.65;1.10;;;;;;;;;;5030750;28;20189;-72
2021/10/25 03:39:14;;;;;;;0.80;0.60;;;;;;;;;;5030793;28;20240;-72
2021/10/25 03:41:45;;;;;;;0.98;0.88;;;;;;;;;;5030883;28;20210;-73
2021/10/25 03:44:20;;;;;;;1.15;1.05;;;;;;;;;;5024786;28;20194;-72
2021/10/25 03:46:55;;;;;;;0.98;0.95;;;;;;;;;;5015848;28;20178;-72
2021/10/25 03:49:39;;;;;;;0.80;0.70;;;;;;;;;;5031293;28;20224;-72
2021/10/25 03:52:14;;;;;;;1.33;1.23;;;;;;;;;;5035888;28;20181;-72
2021/10/25 03:54:49;;;;;;;1.10;1.10;;;;;;;;;;5033502;28;20291;-72
2021/10/25 04:13:42;;;;;;;0.80;0.60;;;;;;;;;;5027542;28;20278;-72
2021/10/25 04:29:42;;;;;;;0.80;0.63;;;;;;;;;;5034520;28;20229;-72
2021/10/25 04:32:08;;;;;;;0.80;0.70;;;;;;;;;;5032759;28;20190;-72
2021/10/25 04:34:37;;;;;;;1.17;1.08;;;;;;;;;;5032967;28;20182;-72
2021/10/25 04:37:03;;;;;;;0.80;0.80;;;;;;;;;;5031958;28;20209;-72
2021/10/25 04:39:29;;;;;;;0.80;0.70;;;;;;;;;;5032800;28;20240;-72
2021/10/25 04:41:55;;;;;;;0.98;0.88;;;;;;;;;;5032410;28;20210;-72
2021/10/25 04:44:21;;;;;;;1.20;0.90;;;;;;;;;;5034526;28;20236;-72
2021/10/25 04:46:47;;;;;;;1.20;0.90;;;;;;;;;;5033123;28;21037;-72
2021/10/25 04:49:13;;;;;;;1.20;1.10;;;;;;;;;;5033653;28;20209;-72
2021/10/25 04:51:39;;;;;;;0.80;0.60;;;;;;;;;;5030948;28;20528;-72
2021/10/25 04:54:05;;;;;;;0.80;0.70;;;;;;;;;;5034654;28;20420;-72
2021/10/25 04:56:31;;;;;;;0.80;0.73;;;;;;;;;;5034283;28;20696;-72
2021/10/25 04:58:57;;;;;;;1.35;1.25;;;;;;;;;;5035072;28;20453;-72
2021/10/25 05:01:23;;;;;;;1.73;1.10;;;;;;;;;;5034493;28;20233;-72
2021/10/25 05:03:49;;;;;;;0.80;0.80;;;;;;;;;;5034590;28;20417;-72
2021/10/25 05:06:19;;;;;;;0.80;0.60;;;;;;;;;;5033886;28;20182;-74
2021/10/25 05:08:48;;;;;;;0.95;0.85;;;;;;;;;;5034185;28;20198;-72
2021/10/25 05:11:14;;;;;;;1.20;1.10;;;;;;;;;;5033643;28;20827;-71
2021/10/25 05:13:42;;;;;;;1.27;1.17;;;;;;;;;;5027131;28;20483;-72
2021/10/25 05:16:08;;;;;;;1.00;0.90;;;;;;;;;;5029883;28;20646;-72
2021/10/25 05:18:34;;;;;;;1.00;0.90;;;;;;;;;;5012628;28;20473;-72
2021/10/25 05:21:00;;;;;;;1.90;1.23;;;;;;;;;;5036294;28;21624;-71
2021/10/25 05:23:27;;;;;;;0.80;0.70;;;;;;;;;;5039664;28;20257;-72
2021/10/25 05:25:53;;;;;;;0.80;0.70;;;;;;;;;;5031548;28;20185;-72
2021/10/25 05:28:19;;;;;;;1.10;1.00;;;;;;;;;;5033884;28;20186;-71
2021/10/25 05:30:45;;;;;;;2.03;1.92;;;;;;;;;;5031951;28;20547;-72
2021/10/25 05:33:11;;;;;;;1.40;1.02;;;;;;;;;;5031355;28;20638;-72
2021/10/25 05:35:40;;;;;;;0.80;0.70;;;;;;;;;;5016482;28;20182;-72
2021/10/25 05:38:06;;;;;;;1.00;0.90;;;;;;;;;;5017894;28;20762;-72
2021/10/25 05:40:32;;;;;;;0.80;0.67;;;;;;;;;;5022701;28;20253;-72
2021/10/25 05:43:01;;;;;;;1.48;1.25;;;;;;;;;;5033355;28;20449;-72
2021/10/25 05:45:27;;;;;;;0.80;0.70;;;;;;;;;;5033994;28;20667;-72
2021/10/25 05:47:53;;;;;;;0.80;0.80;;;;;;;;;;5033099;28;20257;-71
2021/10/25 05:50:19;;;;;;;1.13;0.80;;;;;;;;;;5035958;28;20919;-72
2021/10/25 05:52:45;;;;;;;0.80;0.80;;;;;;;;;;5034619;28;20425;-72
2021/10/25 05:55:12;;;;;;;0.90;0.90;;;;;;;;;;5032585;28;20190;-72
2021/10/25 05:57:38;;;;;;;2.92;2.65;;;;;;;;;;5029900;28;20948;-72
2021/10/25 06:00:05;;;;;;;0.80;0.70;;;;;;;;;;5033212;28;20289;-72
2021/10/25 06:02:35;;;;;;;3.92;1.10;;;;;;;;;;5032505;28;20433;-72
2021/10/25 06:05:01;;;;;;;0.80;0.60;;;;;;;;;;5032888;28;20672;-72
2021/10/25 06:07:27;;;;;;;1.65;1.55;;;;;;;;;;5033089;28;20186;-71
2021/10/25 06:09:54;;;;;;;1.20;1.10;;;;;;;;;;5033071;28;20209;-71
2021/10/25 06:12:21;;;;;;;0.90;0.90;;;;;;;;;;5032797;28;20931;-72
2021/10/25 06:14:48;;;;;;;0.80;0.77;;;;;;;;;;5033425;28;20174;-71
2021/10/25 06:17:40;;;;;;;1.00;1.00;;;;;;;;;;5043616;23;20732;-73
2021/10/25 06:20:10;;;;;;;0.80;0.60;;;;;;;;;;5001133;28;20179;-74
2021/10/25 06:22:38;;;;;;;0.80;0.70;;;;;;;;;;4994920;28;20188;-75
2021/10/25 06:25:04;;;;;;;0.80;0.60;;;;;;;;;;4993747;28;20175;-74
2021/10/25 06:27:30;;;;;;;0.80;0.70;;;;;;;;;;4991875;28;20694;-75
2021/10/25 06:29:56;;;;;;;0.80;0.65;;;;;;;;;;4993388;28;20207;-75
2021/10/25 06:32:22;;;;;;;1.10;1.00;;;;;;;;;;4993799;28;20230;-74
2021/10/25 06:34:50;;;;;;;0.93;0.90;;;;;;;;;;4992657;28;20442;-75
2021/10/25 06:37:18;;;;;;;0.85;0.75;;;;;;;;;;4992957;28;20433;-75
2021/10/25 06:39:53;;;;;;;0.80;0.80;;;;;;;;;;4992228;28;20172;-75
2021/10/25 06:42:19;;;;;;;0.80;0.80;;;;;;;;;;4993630;28;20187;-75
2021/10/25 06:44:59;;;;;;;0.93;0.85;;;;;;;;;;4993507;28;20183;-75
2021/10/25 06:47:25;;;;;;;0.90;0.90;;;;;;;;;;4993185;28;20225;-75
2021/10/25 06:49:51;;;;;;;0.80;0.60;;;;;;;;;;5002819;28;20246;-75
2021/10/25 06:52:17;;;;;;;0.80;0.73;;;;;;;;;;5013464;28;20269;-75
2021/10/25 06:54:44;;;;;;;0.80;0.68;;;;;;;;;;4999331;28;20180;-75
2021/10/25 06:57:10;;;;;;;1.20;1.10;;;;;;;;;;4992685;28;20651;-75
2021/10/25 06:59:36;;;;;;;1.10;1.00;;;;;;;;;;4993188;28;20246;-75
2021/10/25 07:02:02;;;;;;;0.80;0.70;;;;;;;;;;4992910;28;20553;-75
2021/10/25 07:04:29;;;;;;;1.27;1.17;;;;;;;;;;4993408;28;20207;-75
2021/10/25 07:06:56;;;;;;;0.80;0.70;;;;;;;;;;4992528;28;20214;-74
2021/10/25 07:09:22;;;;;;;1.33;1.23;;;;;;;;;;4993144;28;20543;-74
2021/10/25 07:11:48;;;;;;;0.80;0.70;;;;;;;;;;4993148;28;20251;-74
2021/10/25 07:14:16;;;;;;;0.85;0.80;;;;;;;;;;4992751;28;20270;-75
2021/10/25 07:16:50;;;;;;;0.80;0.70;;;;;;;;;;4991322;28;20179;-75
2021/10/25 07:19:26;;;;;;;0.80;0.60;;;;;;;;;;5008017;28;20269;-75
2021/10/25 07:22:14;;;;;;;0.80;0.70;;;;;;;;;;5010708;28;20202;-75
2021/10/25 07:27:55;;;;;;;0.80;0.60;;;;;;;;;;5011796;28;20242;-75
2021/10/25 08:05:55;;;;;;;0.80;0.80;;;;;;;;;;4983519;28;20182;-74
2021/10/25 08:08:39;;;;;;;0.80;0.60;;;;;;;;;;4992463;28;20202;-74
2021/10/25 08:11:08;;;;;;;0.80;0.80;;;;;;;;;;4985302;28;20184;-73
2021/10/25 08:13:39;;;;;;;1.13;1.02;;;;;;;;;;4986548;28;20724;-74
2021/10/25 08:16:41;;;;;;;0.80;0.70;;;;;;;;;;4991568;28;20229;-74
2021/10/25 08:19:39;;;;;;;1.00;1.00;;;;;;;;;;5009098;28;20601;-74
2021/10/25 08:21:40;;;;;;;0.98;0.93;;;;;;;;;;4984861;28;20210;-74
2021/10/25 08:24:06;;;;;;;0.80;0.70;;;;;;;;;;4992717;28;20176;-74
2021/10/25 08:26:32;;;;;;;1.42;1.20;;;;;;;;;;4991539;28;20407;-74
2021/10/25 08:29:00;;;;;;;1.13;1.02;;;;;;;;;;4992378;28;20259;-74
2021/10/25 08:31:27;;;;;;;1.50;1.40;;;;;;;;;;4991865;28;20207;-74
2021/10/25 08:34:26;;;;;;;1.27;1.17;;;;;;;;;;4992273;28;20175;-74
2021/10/25 08:39:47;;;;;;;0.80;0.70;;;;;;;;;;4989842;28;20696;-73
2021/10/25 08:42:14;;;;;;;0.80;0.73;;;;;;;;;;4992065;28;20627;-74
2021/10/25 08:44:41;;;;;;;0.80;0.70;;;;;;;;;;4991526;28;20715;-74
2021/10/25 08:47:08;;;;;;;0.80;0.70;;;;;;;;;;4994665;28;20226;-74
2021/10/25 08:49:35;;;;;;;0.88;0.88;;;;;;;;;;5000892;28;20558;-74
2021/10/25 08:52:01;;;;;;;1.60;1.48;;;;;;;;;;5004173;28;20191;-74
2021/10/25 08:54:28;;;;;;;0.80;0.80;;;;;;;;;;4991545;28;20608;-74
2021/10/25 08:56:54;;;;;;;1.77;1.67;;;;;;;;;;4991242;28;20192;-74
2021/10/25 08:59:21;;;;;;;0.90;0.90;;;;;;;;;;4992061;28;20238;-74
2021/10/25 09:01:47;;;;;;;1.13;1.02;;;;;;;;;;4991025;28;20294;-74
2021/10/25 09:04:15;;;;;;;1.60;1.20;;;;;;;;;;4991562;28;20682;-74
2021/10/25 09:06:52;;;;;;;1.20;0.90;;;;;;;;;;4988286;28;20471;-74
2021/10/25 09:09:18;;;;;;;1.33;1.02;;;;;;;;;;4989853;28;20186;-76
2021/10/25 09:11:57;;;;;;;0.80;0.60;;;;;;;;;;4994059;28;20172;-75
2021/10/25 09:14:23;;;;;;;0.80;0.60;;;;;;;;;;4986120;28;20698;-75
2021/10/25 09:16:55;;;;;;;1.30;1.20;;;;;;;;;;4976617;28;20184;-75
2021/10/25 09:19:21;;;;;;;0.80;0.70;;;;;;;;;;5003728;28;20465;-75
2021/10/25 09:21:47;;;;;;;1.33;1.23;;;;;;;;;;5000290;28;20207;-74
2021/10/25 09:24:18;;;;;;;1.73;1.60;;;;;;;;;;4994912;28;20561;-74
2021/10/25 09:26:44;;;;;;;0.98;0.98;;;;;;;;;;4994498;28;20181;-74
2021/10/25 09:29:11;;;;;;;1.27;1.17;;;;;;;;;;4995044;28;20182;-74
2021/10/25 09:31:37;;;;;;;0.80;0.70;;;;;;;;;;4995144;28;20202;-74
2021/10/25 09:34:10;;;;;;;1.05;0.95;;;;;;;;;;4994465;28;20698;-73
2021/10/25 09:36:39;;;;;;;0.85;0.85;;;;;;;;;;4994014;28;20735;-74
2021/10/25 09:39:17;;;;;;;0.70;0.70;;;;;;;;;;4994893;28;20235;-74
2021/10/25 09:49:57;;;;;;;1.02;0.98;;;;;;;;;;5003659;28;20194;-74
2021/10/25 09:52:37;;;;;;;1.75;1.38;;;;;;;;;;5029683;28;20190;-74
2021/10/25 09:55:05;;;;;;;0.70;0.70;;;;;;;;;;5002764;28;20185;-74
2021/10/25 10:00:13;;;;;;;0.85;0.85;;;;;;;;;;4993225;28;20179;-74
2021/10/25 10:02:40;;;;;;;1.15;1.05;;;;;;;;;;4993729;28;20172;-74
2021/10/25 10:05:10;;;;;;;0.80;0.80;;;;;;;;;;4993467;28;20207;-74
2021/10/25 10:07:36;;;;;;;1.23;1.23;;;;;;;;;;4993210;28;20210;-75
2021/10/25 10:10:03;;;;;;;1.35;0.88;;;;;;;;;;4994617;28;20197;-75
2021/10/25 10:12:29;;;;;;;0.70;0.60;;;;;;;;;;4994224;28;20222;-74
2021/10/25 10:14:56;;;;;;;0.70;0.70;;;;;;;;;;4991928;28;20182;-74
2021/10/25 10:17:27;;;;;;;0.80;0.80;;;;;;;;;;4998746;28;20218;-74
2021/10/25 10:19:53;;;;;;;0.73;0.70;;;;;;;;;;5005395;28;20270;-74
2021/10/25 10:22:20;;;;;;;0.80;0.80;;;;;;;;;;5012970;28;20272;-74
2021/10/25 10:24:48;;;;;;;1.83;1.63;;;;;;;;;;5004982;28;20193;-74
2021/10/25 10:27:19;;;;;;;0.80;0.80;;;;;;;;;;4993207;28;20226;-74
2021/10/25 10:29:49;;;;;;;1.17;1.13;;;;;;;;;;4981319;28;20279;-74
2021/10/25 10:32:16;;;;;;;1.40;1.30;;;;;;;;;;4993998;28;20223;-75
2021/10/25 10:34:44;;;;;;;0.70;0.70;;;;;;;;;;4993004;28;20187;-74
2021/10/25 10:37:23;;;;;;;0.90;0.90;;;;;;;;;;4992893;28;20261;-74
2021/10/25 10:40:00;;;;;;;0.70;0.70;;;;;;;;;;4994007;28;20199;-75
2021/10/25 10:42:30;;;;;;;0.80;0.80;;;;;;;;;;4993657;28;20226;-75
2021/10/25 10:45:00;;;;;;;1.65;0.80;;;;;;;;;;4992641;28;20176;-75
2021/10/25 10:47:28;;;;;;;2.05;1.08;;;;;;;;;;4998362;28;20211;-75
2021/10/25 10:49:56;;;;;;;0.90;0.90;;;;;;;;;;5004827;28;20234;-75
2021/10/25 10:55:09;;;;;;;0.82;0.82;;;;;;;;;;5004443;28;20183;-75
2021/10/25 11:00:28;;;;;;;0.77;0.70;;;;;;;;;;4993381;28;20528;-75
2021/10/25 11:02:58;;;;;;;0.80;0.80;;;;;;;;;;4993271;28;20190;-75
2021/10/25 11:05:32;;;;;;;0.60;0.60;;;;;;;;;;4993021;28;20195;-75
2021/10/25 11:08:07;;;;;;;1.20;1.10;;;;;;;;;;4992519;28;20203;-75
2021/10/25 11:10:33;;;;;;;0.82;0.82;;;;;;;;;;4992850;28;20249;-74
2021/10/25 11:13:03;;;;;;;0.80;0.80;;;;;;;;;;4992715;28;20191;-74
2021/10/25 11:15:51;;;;;;;1.55;1.10;;;;;;;;;;4992401;28;20828;-73
2021/10/25 11:18:17;;;;;;;0.70;0.70;;;;;;;;;;5001953;28;20210;-75
2021/10/25 11:20:43;;;;;;;0.85;0.85;;;;;;;;;;4997214;28;20211;-74
2021/10/25 11:23:09;;;;;;;0.70;0.70;;;;;;;;;;4992994;28;20179;-74
2021/10/25 11:25:40;;;;;;;0.90;0.90;;;;;;;;;;4993148;28;20179;-75
2021/10/25 11:28:13;;;;;;;0.70;0.70;;;;;;;;;;4992721;28;20682;-75
2021/10/25 11:30:39;;;;;;;0.80;0.80;;;;;;;;;;4992432;28;20179;-74
2021/10/25 11:33:05;;;;;;;1.40;0.95;;;;;;;;;;4992789;28;20551;-74
2021/10/25 11:35:31;;;;;;;0.60;0.60;;;;;;;;;;4991716;28;20203;-74
2021/10/25 11:38:01;;;;;;;1.13;1.03;;;;;;;;;;4992147;28;20941;-74
2021/10/25 11:40:28;;;;;;;1.20;1.10;;;;;;;;;;4991767;28;20490;-74
2021/10/25 11:42:59;;;;;;;0.60;0.60;;;;;;;;;;4992560;28;20222;-74
2021/10/25 11:45:25;;;;;;;0.82;0.82;;;;;;;;;;4991948;28;20667;-74
2021/10/25 11:47:52;;;;;;;0.80;0.80;;;;;;;;;;5000865;28;20202;-75
2021/10/25 11:50:19;;;;;;;1.60;1.08;;;;;;;;;;5003462;28;20425;-75
2021/10/25 11:52:58;;;;;;;3.03;2.90;;;;;;;;;;5012458;28;20282;-75
2021/10/25 11:55:29;;;;;;;1.15;0.77;;;;;;;;;;5003357;28;20184;-75
2021/10/25 11:58:06;;;;;;;0.80;0.80;;;;;;;;;;4991592;28;20214;-76
2021/10/25 12:00:39;;;;;;;1.50;0.85;;;;;;;;;;4991964;28;20203;-75
2021/10/25 12:03:08;;;;;;;0.70;0.70;;;;;;;;;;4992193;28;20171;-75
2021/10/25 12:05:34;;;;;;;0.93;0.93;;;;;;;;;;4991882;28;20186;-75
2021/10/25 12:08:01;;;;;;;0.60;0.60;;;;;;;;;;4991622;28;20191;-75
2021/10/25 12:10:28;;;;;;;1.10;0.90;;;;;;;;;;4992401;28;20184;-75
2021/10/25 12:12:55;;;;;;;3.30;0.93;;;;;;;;;;4992583;28;20246;-74
2021/10/25 12:15:23;;;;;;;1.27;1.20;;;;;;;;;;4991588;28;20198;-74
2021/10/25 12:17:49;;;;;;;2.63;1.08;;;;;;;;;;5021663;22;20664;-74
2021/10/25 12:20:23;;;;;;;1.23;1.13;;;;;;;;;;5023413;28;20236;-74
2021/10/25 12:22:58;;;;;;;1.20;1.10;;;;;;;;;;5025898;28;20202;-75
2021/10/25 12:25:24;;;;;;;0.73;0.73;;;;;;;;;;5012029;28;20183;-74
2021/10/25 12:27:50;;;;;;;0.60;0.60;;;;;;;;;;5010898;28;20198;-74
2021/10/25 12:30:17;;;;;;;0.80;0.80;;;;;;;;;;5010992;28;20434;-74
2021/10/25 12:32:51;;;;;;;1.70;1.13;;;;;;;;;;5011284;28;20410;-74
2021/10/25 12:35:17;;;;;;;0.93;0.82;;;;;;;;;;5011645;28;20242;-74
2021/10/25 12:37:43;;;;;;;1.23;0.80;;;;;;;;;;5010712;28;20203;-74
2021/10/25 12:40:16;;;;;;;1.83;1.73;;;;;;;;;;5011383;28;20479;-74
2021/10/25 12:42:42;;;;;;;0.85;0.85;;;;;;;;;;5011737;28;20410;-74
2021/10/25 12:45:16;;;;;;;0.90;0.70;;;;;;;;;;5011696;28;20563;-74
2021/10/25 12:47:42;;;;;;;0.90;0.90;;;;;;;;;;5013514;28;20208;-74
2021/10/25 12:50:12;;;;;;;1.02;1.02;;;;;;;;;;5028404;28;20182;-74
2021/10/25 12:52:39;;;;;;;0.80;0.80;;;;;;;;;;5023339;28;20178;-74
2021/10/25 12:55:06;;;;;;;1.58;1.48;;;;;;;;;;5007541;28;20315;-74
2021/10/25 12:57:35;;;;;;;0.90;0.90;;;;;;;;;;5014547;28;20199;-74
2021/10/25 13:00:20;;;;;;;0.60;0.60;;;;;;;;;;5015484;28;20171;-74
2021/10/25 13:02:48;;;;;;;0.90;0.90;;;;;;;;;;5015120;28;20668;-74
2021/10/25 13:05:16;;;;;;;0.65;0.65;;;;;;;;;;5014804;28;20194;-74
2021/10/25 13:07:49;;;;;;;0.88;0.88;;;;;;;;;;5012508;28;20218;-74
2021/10/25 13:10:18;;;;;;;1.58;1.52;;;;;;;;;;5015329;28;20250;-74
2021/10/25 13:12:45;;;;;;;0.80;0.80;;;;;;;;;;5015170;28;20528;-74
2021/10/25 13:15:11;;;;;;;1.13;1.13;;;;;;;;;;5014669;28;20296;-74
2021/10/25 13:17:38;;;;;;;0.85;0.85;;;;;;;;;;5013937;28;20689;-74
2021/10/25 13:20:05;;;;;;;0.60;0.60;;;;;;;;;;5014789;28;20186;-74
2021/10/25 13:22:31;;;;;;;2.88;1.25;;;;;;;;;;5023027;28;20264;-74
2021/10/25 13:24:57;;;;;;;1.35;0.70;;;;;;;;;;5016635;28;20180;-74
2021/10/25 13:27:24;;;;;;;1.00;0.90;;;;;;;;;;5014026;28;20167;-74
2021/10/25 13:29:50;;;;;;;1.00;0.75;;;;;;;;;;5014993;28;20175;-74
2021/10/25 13:32:17;;;;;;;1.10;1.00;;;;;;;;;;5014386;28;20194;-74
2021/10/25 13:34:43;;;;;;;0.70;0.70;;;;;;;;;;5014654;28;20615;-74
2021/10/25 13:37:10;;;;;;;3.75;0.70;;;;;;;;;;5013652;28;20558;-74
2021/10/25 13:39:36;;;;;;;6.22;0.80;;;;;;;;;;5013203;28;20273;-74
2021/10/25 13:42:02;;;;;;;0.60;0.60;;;;;;;;;;5012814;28;20209;-74
2021/10/25 13:44:28;;;;;;;0.70;0.70;;;;;;;;;;5013952;28;20241;-74
2021/10/25 13:46:53;;;;;;;0.60;0.60;;;;;;;;;;5013819;28;20631;-74
2021/10/25 13:49:20;;;;;;;1.00;1.00;;;;;;;;;;4997909;28;20812;-75
2021/10/25 13:51:45;;;;;;;0.82;0.82;;;;;;;;;;5017791;28;20494;-74
2021/10/25 13:54:12;;;;;;;0.80;0.80;;;;;;;;;;5016304;28;20616;-74
2021/10/25 13:56:38;;;;;;;0.60;0.60;;;;;;;;;;5012696;28;20406;-74
2021/10/25 13:59:04;;;;;;;0.82;0.82;;;;;;;;;;5013924;28;20289;-74
2021/10/25 14:01:31;;;;;;;0.60;0.50;;;;;;;;;;5014246;28;20199;-75
2021/10/25 14:03:58;;;;;;;0.85;0.80;;;;;;;;;;5014073;28;20282;-75
2021/10/25 14:06:27;;;;;;;0.60;0.60;;;;;;;;;;5012254;28;20543;-75
2021/10/25 14:08:53;;;;;;;1.17;1.08;;;;;;;;;;5014043;28;20199;-75
2021/10/25 14:11:21;;;;;;;0.63;0.63;;;;;;;;;;5015296;28;20190;-75
2021/10/25 14:18:45;;;;;;;0.60;0.60;;;;;;;;;;5015032;28;20218;-75
2021/10/25 14:21:15;;;;;;;0.60;0.60;;;;;;;;;;5019440;28;20207;-76
2021/10/25 14:23:41;;;;;;;0.60;0.60;;;;;;;;;;5029521;28;20179;-76
2021/10/25 14:26:07;;;;;;;10.20;1.45;;;;;;;;;;5014589;28;20184;-76
2021/10/25 14:28:33;;;;;;;1.07;1.07;;;;;;;;;;5016142;28;20547;-76
2021/10/25 14:31:00;;;;;;;1.13;0.77;;;;;;;;;;5015596;28;20459;-75
2021/10/25 14:33:27;;;;;;;0.60;0.60;;;;;;;;;;5014045;28;20210;-74
2021/10/25 14:35:54;;;;;;;0.70;0.70;;;;;;;;;;4994070;28;20520;-75
2021/10/25 14:43:32;;;;;;;0.80;0.80;;;;;;;;;;5013259;28;20242;-75
2021/10/25 14:46:06;;;;;;;0.60;0.60;;;;;;;;;;5012880;28;20183;-75
2021/10/25 14:48:42;;;;;;;0.70;0.60;;;;;;;;;;5013253;28;20195;-75
2021/10/25 14:53:58;;;;;;;0.60;0.60;;;;;;;;;;5018193;28;20555;-75
2021/10/25 14:56:24;;;;;;;0.88;0.70;;;;;;;;;;5012503;28;20191;-75
2021/10/25 14:58:50;;;;;;;0.70;0.70;;;;;;;;;;5012821;28;20677;-75
2021/10/25 15:01:19;;;;;;;0.60;0.60;;;;;;;;;;5012727;28;20289;-75
2021/10/25 15:03:45;;;;;;;0.60;0.60;;;;;;;;;;5013098;28;20187;-74
2021/10/25 15:06:12;;;;;;;0.60;0.50;;;;;;;;;;5012100;28;20237;-75
2021/10/25 15:08:38;;;;;;;0.70;0.70;;;;;;;;;;5011647;28;20795;-75
2021/10/25 15:11:04;;;;;;;0.60;0.60;;;;;;;;;;5013064;28;20185;-74
2021/10/25 15:13:30;;;;;;;0.60;0.60;;;;;;;;;;5012470;28;20406;-75
2021/10/25 15:15:56;;;;;;;0.70;0.70;;;;;;;;;;5012171;28;20794;-74
2021/10/25 15:18:22;;;;;;;0.60;0.60;;;;;;;;;;5011053;28;20468;-75
2021/10/25 15:20:49;;;;;;;0.75;0.73;;;;;;;;;;5013455;28;20665;-74
2021/10/25 15:23:16;;;;;;;0.80;0.80;;;;;;;;;;5023619;28;20182;-74
2021/10/25 15:25:44;;;;;;;2.25;2.05;;;;;;;;;;4992866;28;20186;-74
2021/10/25 15:28:13;;;;;;;0.80;0.70;;;;;;;;;;4992601;28;20231;-74
2021/10/25 15:30:40;;;;;;;0.65;0.65;;;;;;;;;;4992988;28;20253;-74
2021/10/25 15:33:06;;;;;;;0.70;0.70;;;;;;;;;;4996227;28;20179;-74
2021/10/25 15:35:33;;;;;;;0.73;0.73;;;;;;;;;;5010533;28;20195;-74
2021/10/25 15:38:00;;;;;;;1.00;0.90;;;;;;;;;;5009927;28;20209;-74
2021/10/25 15:40:30;;;;;;;1.55;1.00;;;;;;;;;;5012505;28;20210;-74
2021/10/25 15:42:56;;;;;;;0.70;0.70;;;;;;;;;;5012279;28;20178;-75
2021/10/25 15:45:22;;;;;;;1.02;0.82;;;;;;;;;;5012576;28;20527;-75
2021/10/25 15:47:48;;;;;;;0.97;0.97;;;;;;;;;;5011020;28;20214;-75
2021/10/25 15:50:14;;;;;;;3.40;1.50;;;;;;;;;;5012386;28;20413;-74
2021/10/25 15:52:42;;;;;;;1.00;1.00;;;;;;;;;;5015242;28;21094;-74
2021/10/25 15:55:08;;;;;;;0.60;0.60;;;;;;;;;;4992467;28;20584;-74
2021/10/25 15:57:35;;;;;;;0.73;0.73;;;;;;;;;;4999738;28;20553;-75
2021/10/25 16:00:03;;;;;;;0.80;0.80;;;;;;;;;;5011980;28;20182;-74
2021/10/25 16:02:29;;;;;;;0.70;0.70;;;;;;;;;;5012178;28;20260;-75
2021/10/25 16:04:55;;;;;;;0.80;0.80;;;;;;;;;;5011652;28;20171;-74
2021/10/25 16:07:21;;;;;;;0.60;0.60;;;;;;;;;;5009530;28;20417;-74
2021/10/25 16:09:48;;;;;;;0.85;0.85;;;;;;;;;;5015234;28;20183;-74
2021/10/25 16:12:17;;;;;;;0.70;0.70;;;;;;;;;;5009444;28;20187;-74
2021/10/25 16:14:44;;;;;;;0.70;0.70;;;;;;;;;;5010000;28;20190;-75
2021/10/25 16:17:11;;;;;;;2.35;0.90;;;;;;;;;;5011040;28;20185;-74
2021/10/25 16:19:39;;;;;;;0.80;0.80;;;;;;;;;;5011994;28;20202;-74
2021/10/25 16:22:05;;;;;;;0.85;0.85;;;;;;;;;;5023517;28;20232;-74
2021/10/25 16:24:30;;;;;;;1.20;1.10;;;;;;;;;;5019655;28;20217;-74
2021/10/25 16:26:56;;;;;;;0.70;0.70;;;;;;;;;;5015319;28;20467;-74
2021/10/25 16:29:22;;;;;;;0.80;0.80;;;;;;;;;;5011993;28;20825;-74